createdAt,value
2022-08-07T00:00:18.722Z,1.65
2022-08-07T00:01:44.205Z,0.98
2022-08-07T00:02:45.665Z,1.15
2022-08-07T00:03:48.666Z,0.93
2022-08-07T00:04:51.388Z,1.13
2022-08-07T00:05:54.851Z,1.30
2022-08-07T00:07:01.410Z,1.25
2022-08-07T00:08:08.041Z,1.02
2022-08-07T00:09:16.831Z,0.95
2022-08-07T00:10:26.869Z,0.98
2022-08-07T00:11:33.137Z,1.15
2022-08-07T00:12:36.043Z,0.95
2022-08-07T00:13:58.687Z,1.00
2022-08-07T00:15:02.441Z,1.30
2022-08-07T00:16:06.573Z,1.08
2022-08-07T00:17:10.510Z,1.52
2022-08-07T00:18:19.247Z,1.15
2022-08-07T00:19:26.130Z,1.02
2022-08-07T00:20:37.684Z,1.30
2022-08-07T00:21:56.706Z,1.02
2022-08-07T00:23:08.135Z,1.20
2022-08-07T00:24:11.567Z,1.20
2022-08-07T00:25:16.710Z,0.85
2022-08-07T00:26:49.440Z,1.13
2022-08-07T00:27:53.774Z,1.23
2022-08-07T00:28:59.431Z,1.00
2022-08-07T00:30:04.385Z,1.17
2022-08-07T00:31:37.499Z,1.00
2022-08-07T00:32:41.164Z,1.20
2022-08-07T00:33:47.426Z,1.20
2022-08-07T00:34:50.741Z,1.20
2022-08-07T00:35:54.074Z,1.27
2022-08-07T00:36:57.278Z,1.05
2022-08-07T00:38:01.193Z,1.27
2022-08-07T00:39:04.311Z,0.90
2022-08-07T00:40:10.782Z,1.20
2022-08-07T00:41:15.142Z,1.17
2022-08-07T00:42:18.189Z,0.95
2022-08-07T00:43:59.012Z,1.13
2022-08-07T00:44:51.339Z,1.13
2022-08-07T00:45:54.029Z,1.10
2022-08-07T00:46:56.623Z,1.75
2022-08-07T00:48:08.202Z,1.15
2022-08-07T00:49:12.691Z,1.33
2022-08-07T00:50:43.723Z,1.00
2022-08-07T00:51:56.576Z,1.50
2022-08-07T00:53:01.028Z,1.40
2022-08-07T00:54:04.439Z,1.30
2022-08-07T00:55:10.700Z,1.40
2022-08-07T00:56:15.658Z,1.52
2022-08-07T00:57:18.407Z,1.50
2022-08-07T00:58:21.546Z,1.60
2022-08-07T00:59:35.282Z,1.60
2022-08-07T01:00:38.908Z,1.67
2022-08-07T01:02:02.847Z,1.20
2022-08-07T01:03:08.846Z,2.17
2022-08-07T01:04:24.614Z,1.20
2022-08-07T01:05:27.730Z,1.20
2022-08-07T01:06:38.953Z,1.30
2022-08-07T01:07:41.937Z,1.33
2022-08-07T01:08:53.116Z,1.40
2022-08-07T01:10:06.226Z,0.95
2022-08-07T01:12:04.988Z,1.35
2022-08-07T01:12:53.578Z,0.90
2022-08-07T01:14:00.594Z,1.27
2022-08-07T01:15:05.165Z,0.95
2022-08-07T01:16:09.064Z,1.08
2022-08-07T01:17:12.525Z,1.10
2022-08-07T01:18:17.894Z,1.13
2022-08-07T01:19:23.672Z,1.20
2022-08-07T01:20:35.563Z,0.82
2022-08-07T01:21:48.431Z,1.13
2022-08-07T01:23:00.438Z,1.00
2022-08-07T01:24:12.090Z,1.33
2022-08-07T01:25:54.787Z,1.10
2022-08-07T01:26:38.411Z,1.52
2022-08-07T01:27:41.199Z,1.13
2022-08-07T01:28:55.347Z,1.25
2022-08-07T01:30:01.775Z,1.17
2022-08-07T01:31:05.769Z,1.00
2022-08-07T01:32:12.488Z,1.60
2022-08-07T01:33:18.935Z,1.30
2022-08-07T01:34:30.622Z,1.40
2022-08-07T01:35:52.945Z,1.17
2022-08-07T01:36:59.238Z,1.00
2022-08-07T01:38:04.603Z,1.73
2022-08-07T01:39:10.090Z,1.20
2022-08-07T01:40:20.050Z,1.20
2022-08-07T01:41:33.538Z,1.30
2022-08-07T01:42:58.732Z,1.33
2022-08-07T01:44:04.861Z,1.17
2022-08-07T01:45:18.343Z,1.10
2022-08-07T01:46:28.535Z,1.20
2022-08-07T01:48:20.773Z,1.10
2022-08-07T01:48:58.003Z,1.25
2022-08-07T01:50:03.816Z,0.98
2022-08-07T01:52:02.570Z,1.30
2022-08-07T01:52:32.775Z,1.15
2022-08-07T01:54:09.591Z,1.15
2022-08-07T01:55:02.283Z,1.08
2022-08-07T01:56:14.983Z,1.00
2022-08-07T01:57:28.926Z,1.45
2022-08-07T01:58:45.272Z,1.38
2022-08-07T02:00:13.323Z,0.90
2022-08-07T02:02:02.316Z,1.40
2022-08-07T02:03:19.178Z,1.13
2022-08-07T02:04:33.031Z,1.30
2022-08-07T02:05:59.841Z,0.90
2022-08-07T02:07:07.136Z,1.13
2022-08-07T02:08:13.981Z,1.00
2022-08-07T02:09:51.900Z,1.38
2022-08-07T02:10:42.895Z,1.42
2022-08-07T02:12:03.443Z,1.42
2022-08-07T02:13:10.879Z,1.02
2022-08-07T02:14:36.546Z,1.40
2022-08-07T02:15:53.136Z,1.40
2022-08-07T02:16:56.955Z,1.25
2022-08-07T02:18:01.840Z,1.13
2022-08-07T02:20:04.182Z,1.08
2022-08-07T02:20:32.799Z,1.27
2022-08-07T02:21:55.989Z,1.10
2022-08-07T02:23:03.040Z,1.15
2022-08-07T02:24:06.705Z,0.90
2022-08-07T02:25:18.083Z,1.10
2022-08-07T02:26:34.641Z,1.20
2022-08-07T02:27:41.151Z,1.23
2022-08-07T02:28:44.731Z,1.83
2022-08-07T02:29:54.573Z,1.20
2022-08-07T02:31:10.099Z,1.30
2022-08-07T02:32:13.888Z,1.52
2022-08-07T02:33:18.301Z,1.00
2022-08-07T02:34:21.479Z,1.27
2022-08-07T02:36:26.923Z,1.10
2022-08-07T02:36:52.937Z,1.23
2022-08-07T02:37:58.181Z,1.10
2022-08-07T02:39:09.275Z,1.30
2022-08-07T02:40:30.442Z,1.30
2022-08-07T02:41:38.987Z,1.35
2022-08-07T02:42:50.929Z,1.10
2022-08-07T02:43:58.549Z,1.30
2022-08-07T02:45:11.989Z,0.90
2022-08-07T02:46:30.269Z,1.23
2022-08-07T02:47:45.044Z,1.33
2022-08-07T02:48:54.911Z,1.05
2022-08-07T02:50:00.202Z,1.30
2022-08-07T02:51:28.852Z,1.15
2022-08-07T02:52:39.173Z,1.50
2022-08-07T02:53:46.137Z,1.08
2022-08-07T02:54:49.674Z,1.27
2022-08-07T02:56:03.710Z,1.40
2022-08-07T02:57:12.735Z,1.30
2022-08-07T02:58:22.272Z,1.33
2022-08-07T02:59:32.309Z,1.27
2022-08-07T03:00:39.455Z,1.20
2022-08-07T03:01:47.264Z,1.23
2022-08-07T03:02:55.441Z,1.20
2022-08-07T03:04:03.404Z,1.50
2022-08-07T03:05:10.532Z,1.08
2022-08-07T03:06:16.462Z,0.93
2022-08-07T03:07:21.490Z,1.50
2022-08-07T03:08:44.659Z,1.65
2022-08-07T03:09:52.146Z,1.45
2022-08-07T03:10:56.587Z,1.17
2022-08-07T03:12:06.683Z,1.42
2022-08-07T03:13:15.008Z,1.67
2022-08-07T03:14:18.318Z,1.50
2022-08-07T03:15:30.273Z,1.20
2022-08-07T03:16:43.739Z,1.35
2022-08-07T03:17:53.243Z,1.25
2022-08-07T03:19:01.956Z,1.67
2022-08-07T03:20:05.722Z,1.40
2022-08-07T03:21:11.448Z,1.00
2022-08-07T03:22:18.936Z,1.58
2022-08-07T03:23:22.521Z,1.20
2022-08-07T03:24:37.146Z,1.15
2022-08-07T03:25:42.649Z,1.30
2022-08-07T03:26:58.535Z,1.48
2022-08-07T03:28:09.595Z,1.55
2022-08-07T03:29:30.927Z,1.30
2022-08-07T03:31:42.295Z,1.58
2022-08-07T03:32:57.073Z,1.63
2022-08-07T03:34:03.729Z,1.20
2022-08-07T03:35:27.149Z,1.33
2022-08-07T03:36:40.996Z,1.30
2022-08-07T03:37:53.950Z,1.70
2022-08-07T03:39:09.245Z,1.27
2022-08-07T03:40:16.144Z,1.67
2022-08-07T03:41:20.052Z,1.17
2022-08-07T03:42:43.876Z,1.23
2022-08-07T03:43:57.326Z,1.27
2022-08-07T03:45:05.383Z,1.38
2022-08-07T03:46:10.380Z,1.20
2022-08-07T03:47:14.746Z,1.27
2022-08-07T03:48:21.324Z,1.63
2022-08-07T03:49:24.190Z,1.25
2022-08-07T03:50:28.933Z,1.25
2022-08-07T03:51:47.345Z,1.30
2022-08-07T03:52:53.004Z,1.70
2022-08-07T03:54:33.692Z,1.08
2022-08-07T03:55:19.157Z,1.20
2022-08-07T03:56:33.260Z,1.48
2022-08-07T03:58:34.691Z,0.80
2022-08-07T03:59:13.338Z,1.33
2022-08-07T04:00:21.092Z,1.23
2022-08-07T04:01:33.230Z,1.48
2022-08-07T04:02:42.767Z,1.17
2022-08-07T04:03:58.207Z,1.00
2022-08-07T04:05:02.198Z,1.00
2022-08-07T04:06:09.172Z,1.30
2022-08-07T04:07:36.229Z,1.05
2022-08-07T04:08:46.750Z,1.30
2022-08-07T04:09:50.767Z,1.02
2022-08-07T04:12:23.653Z,1.10
2022-08-07T04:12:26.911Z,1.00
2022-08-07T04:14:09.377Z,0.95
2022-08-07T04:14:57.382Z,1.17
2022-08-07T04:16:03.069Z,1.00
2022-08-07T04:17:20.137Z,0.98
2022-08-07T04:18:57.613Z,1.00
2022-08-07T04:19:52.424Z,0.93
2022-08-07T04:20:59.246Z,0.98
2022-08-07T04:22:08.648Z,1.20
2022-08-07T04:23:19.662Z,1.05
2022-08-07T04:24:30.495Z,1.10
2022-08-07T04:25:40.971Z,0.95
2022-08-07T04:26:45.444Z,1.10
2022-08-07T04:27:59.005Z,1.40
2022-08-07T04:29:04.611Z,0.98
2022-08-07T04:30:11.712Z,1.15
2022-08-07T04:31:38.415Z,1.42
2022-08-07T04:32:58.307Z,0.63
2022-08-07T04:34:03.373Z,1.40
2022-08-07T04:35:11.394Z,1.42
2022-08-07T04:36:15.216Z,1.30
2022-08-07T04:37:20.309Z,0.77
2022-08-07T04:38:25.878Z,1.00
2022-08-07T04:39:35.948Z,1.30
2022-08-07T04:40:43.816Z,1.30
2022-08-07T04:41:56.006Z,1.15
2022-08-07T04:43:01.999Z,1.08
2022-08-07T04:44:12.542Z,1.10
2022-08-07T04:46:00.343Z,0.70
2022-08-07T04:47:56.709Z,1.20
2022-08-07T04:48:51.032Z,1.10
2022-08-07T04:50:11.552Z,1.02
2022-08-07T04:51:37.922Z,0.80
2022-08-07T04:52:56.403Z,0.85
2022-08-07T04:54:13.101Z,0.80
2022-08-07T04:58:11.698Z,0.85
2022-08-07T04:58:14.031Z,0.90
2022-08-07T04:59:17.240Z,0.98
2022-08-07T05:00:30.068Z,0.60
2022-08-07T05:02:09.132Z,0.80
2022-08-07T05:04:06.483Z,0.98
2022-08-07T05:05:11.511Z,1.10
2022-08-07T05:06:22.816Z,0.60
2022-08-07T05:07:48.384Z,0.68
2022-08-07T05:09:11.103Z,0.95
2022-08-07T05:10:29.964Z,0.68
2022-08-07T05:11:58.398Z,0.40
2022-08-07T05:14:53.903Z,0.63
2022-08-07T05:14:54.052Z,0.63
2022-08-07T05:16:00.300Z,0.77
2022-08-07T05:17:11.677Z,0.60
2022-08-07T05:18:21.235Z,0.52
2022-08-07T05:19:44.044Z,0.60
2022-08-07T05:20:53.838Z,0.70
2022-08-07T05:22:01.787Z,0.70
2022-08-07T05:23:17.123Z,0.80
2022-08-07T05:24:24.544Z,0.70
2022-08-07T05:26:10.450Z,0.65
2022-08-07T05:26:59.465Z,0.80
2022-08-07T05:28:19.887Z,0.68
2022-08-07T05:29:26.116Z,0.70
2022-08-07T05:30:43.163Z,0.38
2022-08-07T05:31:52.720Z,0.50
2022-08-07T05:33:02.580Z,1.02
2022-08-07T05:34:10.913Z,0.65
2022-08-07T05:35:22.190Z,0.52
2022-08-07T05:36:39.012Z,0.63
2022-08-07T05:37:46.934Z,0.70
2022-08-07T05:40:06.462Z,0.63
2022-08-07T05:40:50.584Z,0.50
2022-08-07T05:42:01.079Z,0.60
2022-08-07T05:43:11.540Z,0.75
2022-08-07T05:44:15.580Z,0.60
2022-08-07T05:45:47.807Z,0.70
2022-08-07T05:46:53.173Z,0.65
2022-08-07T05:48:02.635Z,0.43
2022-08-07T05:49:14.585Z,0.70
2022-08-07T05:50:22.025Z,0.60
2022-08-07T05:51:24.956Z,0.80
2022-08-07T05:52:32.482Z,0.60
2022-08-07T05:54:13.522Z,0.57
2022-08-07T05:55:10.519Z,0.65
2022-08-07T05:56:18.250Z,0.68
2022-08-07T05:57:26.655Z,0.60
2022-08-07T05:58:36.943Z,0.38
2022-08-07T05:59:57.825Z,0.40
2022-08-07T06:01:16.154Z,0.50
2022-08-07T06:02:29.286Z,0.57
2022-08-07T06:03:57.200Z,0.77
2022-08-07T06:05:05.130Z,0.40
2022-08-07T06:06:09.459Z,0.43
2022-08-07T06:07:23.080Z,0.80
2022-08-07T06:08:40.432Z,0.50
2022-08-07T06:10:05.223Z,0.52
2022-08-07T06:11:09.295Z,0.55
2022-08-07T06:12:15.402Z,0.30
2022-08-07T06:13:18.725Z,0.70
2022-08-07T06:14:28.718Z,0.52
2022-08-07T06:15:39.446Z,0.57
2022-08-07T06:16:50.226Z,0.38
2022-08-07T06:17:55.601Z,0.50
2022-08-07T06:19:03.798Z,0.50
2022-08-07T06:20:12.367Z,0.40
2022-08-07T06:22:14.327Z,0.50
2022-08-07T06:22:41.177Z,0.30
2022-08-07T06:24:37.615Z,0.90
2022-08-07T06:25:24.187Z,0.63
2022-08-07T06:26:29.296Z,0.63
2022-08-07T06:28:00.545Z,0.50
2022-08-07T06:28:59.630Z,0.40
2022-08-07T06:30:06.432Z,0.50
2022-08-07T06:31:46.644Z,0.70
2022-08-07T06:32:49.976Z,0.20
2022-08-07T06:33:52.777Z,0.40
2022-08-07T06:34:57.277Z,0.60
2022-08-07T06:36:12.043Z,0.50
2022-08-07T06:37:44.083Z,0.55
2022-08-07T06:38:58.862Z,0.50
2022-08-07T06:40:17.020Z,0.40
2022-08-07T06:42:02.567Z,0.50
2022-08-07T06:42:53.866Z,0.40
2022-08-07T06:44:16.317Z,0.40
2022-08-07T06:45:23.976Z,0.50
2022-08-07T06:46:35.465Z,0.50
2022-08-07T06:47:57.533Z,0.35
2022-08-07T06:49:05.298Z,0.47
2022-08-07T06:50:30.490Z,0.40
2022-08-07T06:51:36.290Z,0.40
2022-08-07T06:52:55.742Z,0.40
2022-08-07T06:55:27.735Z,0.68
2022-08-07T06:55:53.803Z,0.50
2022-08-07T06:56:52.582Z,0.57
2022-08-07T06:58:09.534Z,0.45
2022-08-07T07:00:14.269Z,0.85
2022-08-07T07:00:53.299Z,0.35
2022-08-07T07:01:58.736Z,0.40
2022-08-07T07:03:08.936Z,0.20
2022-08-07T07:04:32.576Z,0.30
2022-08-07T07:06:03.135Z,0.52
2022-08-07T07:07:01.211Z,0.40
2022-08-07T07:08:07.374Z,0.30
2022-08-07T07:09:22.122Z,0.40
2022-08-07T07:10:28.983Z,0.77
2022-08-07T07:12:08.478Z,0.47
2022-08-07T07:13:04.376Z,0.60
2022-08-07T07:14:08.583Z,0.43
2022-08-07T07:15:23.784Z,0.30
2022-08-07T07:16:30.719Z,0.38
2022-08-07T07:17:39.028Z,0.47
2022-08-07T07:18:56.367Z,0.50
2022-08-07T07:20:01.012Z,0.60
2022-08-07T07:21:20.043Z,0.30
2022-08-07T07:22:35.930Z,0.57
2022-08-07T07:24:06.451Z,0.30
2022-08-07T07:26:30.460Z,0.50
2022-08-07T07:26:36.496Z,0.30
2022-08-07T07:28:03.066Z,0.40
2022-08-07T07:29:57.269Z,0.30
2022-08-07T07:30:40.325Z,0.60
2022-08-07T07:31:47.151Z,0.55
2022-08-07T07:32:51.791Z,1.05
2022-08-07T07:33:59.969Z,0.28
2022-08-07T07:35:04.515Z,0.50
2022-08-07T07:36:13.338Z,0.40
2022-08-07T07:37:44.435Z,0.63
2022-08-07T07:38:46.084Z,0.52
2022-08-07T07:39:54.766Z,0.60
2022-08-07T07:41:02.723Z,0.52
2022-08-07T07:42:13.461Z,0.30
2022-08-07T07:43:27.629Z,0.80
2022-08-07T07:44:49.558Z,0.47
2022-08-07T07:46:37.011Z,0.77
2022-08-07T07:47:23.639Z,0.40
2022-08-07T07:48:36.078Z,0.32
2022-08-07T07:50:33.276Z,0.38
2022-08-07T07:51:07.833Z,0.50
2022-08-07T07:52:13.049Z,0.52
2022-08-07T07:53:22.905Z,0.30
2022-08-07T07:54:27.009Z,0.50
2022-08-07T07:55:37.202Z,0.52
2022-08-07T07:56:49.220Z,0.30
2022-08-07T07:57:58.097Z,0.40
2022-08-07T07:59:02.793Z,0.40
2022-08-07T08:00:06.678Z,0.40
2022-08-07T08:02:03.151Z,0.30
2022-08-07T08:03:01.240Z,0.60
2022-08-07T08:04:11.592Z,0.45
2022-08-07T08:06:18.698Z,0.28
2022-08-07T08:07:35.777Z,0.40
2022-08-07T08:08:48.178Z,0.30
2022-08-07T08:10:04.673Z,0.50
2022-08-07T08:11:16.290Z,0.45
2022-08-07T08:12:50.128Z,0.60
2022-08-07T08:13:55.501Z,0.63
2022-08-07T08:14:58.457Z,0.30
2022-08-07T08:16:02.674Z,0.50
2022-08-07T08:17:55.731Z,0.28
2022-08-07T08:18:31.213Z,0.40
2022-08-07T08:20:22.184Z,0.40
2022-08-07T08:21:01.276Z,0.50
2022-08-07T08:22:24.083Z,0.32
2022-08-07T08:23:55.728Z,0.50
2022-08-07T08:25:24.876Z,0.30
2022-08-07T08:27:00.412Z,0.40
2022-08-07T08:28:16.925Z,0.40
2022-08-07T08:29:27.839Z,0.30
2022-08-07T08:30:42.494Z,0.43
2022-08-07T08:31:58.832Z,0.50
2022-08-07T08:33:16.810Z,0.43
2022-08-07T08:34:27.215Z,0.40
2022-08-07T08:35:39.306Z,0.65
2022-08-07T08:36:57.805Z,0.50
2022-08-07T08:38:04.869Z,0.32
2022-08-07T08:39:09.176Z,0.30
2022-08-07T08:40:28.830Z,0.38
2022-08-07T08:41:57.850Z,0.30
2022-08-07T08:43:08.374Z,0.30
2022-08-07T08:44:14.258Z,0.40
2022-08-07T08:45:41.825Z,0.30
2022-08-07T08:46:52.821Z,0.40
2022-08-07T08:47:55.917Z,0.30
2022-08-07T08:49:08.027Z,0.30
2022-08-07T08:50:35.278Z,0.40
2022-08-07T08:52:12.841Z,0.40
2022-08-07T08:53:31.041Z,0.60
2022-08-07T08:54:40.819Z,0.60
2022-08-07T08:55:59.606Z,0.50
2022-08-07T08:57:07.395Z,0.40
2022-08-07T08:58:30.542Z,0.52
2022-08-07T08:59:42.063Z,0.50
2022-08-07T09:00:56.386Z,0.47
2022-08-07T09:02:42.202Z,0.55
2022-08-07T09:03:58.264Z,0.40
2022-08-07T09:05:32.319Z,0.50
2022-08-07T09:06:52.066Z,0.30
2022-08-07T09:08:24.377Z,0.30
2022-08-07T09:09:57.244Z,0.47
2022-08-07T09:11:24.809Z,0.30
2022-08-07T09:13:18.251Z,0.50
2022-08-07T09:14:41.120Z,0.55
2022-08-07T09:16:24.186Z,0.40
2022-08-07T09:17:59.488Z,0.40
2022-08-07T09:19:53.179Z,0.40
2022-08-07T09:21:57.739Z,0.40
2022-08-07T09:24:31.521Z,0.43
2022-08-07T09:24:33.628Z,0.60
2022-08-07T09:25:54.696Z,0.50
2022-08-07T09:27:11.991Z,0.40
2022-08-07T09:30:01.527Z,0.50
2022-08-07T09:30:04.599Z,0.50
2022-08-07T09:31:48.560Z,0.50
2022-08-07T09:33:41.114Z,0.50
2022-08-07T09:35:04.843Z,0.60
2022-08-07T09:36:37.228Z,0.50
2022-08-07T09:37:48.463Z,0.60
2022-08-07T09:39:11.384Z,0.38
2022-08-07T09:40:36.821Z,0.68
2022-08-07T09:41:59.085Z,0.50
2022-08-07T09:43:21.379Z,0.60
2022-08-07T09:47:42.417Z,0.80
2022-08-07T09:47:51.765Z,0.70
2022-08-07T09:48:29.735Z,0.50
2022-08-07T09:50:01.995Z,0.60
2022-08-07T09:52:10.595Z,0.50
2022-08-07T09:53:13.113Z,0.50
2022-08-07T09:54:40.452Z,0.40
2022-08-07T09:56:37.245Z,0.40
2022-08-07T09:58:32.473Z,0.50
2022-08-07T10:00:09.246Z,0.50
2022-08-07T10:01:51.717Z,0.50
2022-08-07T10:04:05.252Z,0.50
2022-08-07T10:05:12.612Z,0.45
2022-08-07T10:06:53.961Z,0.50
2022-08-07T10:08:19.847Z,0.55
2022-08-07T10:09:59.129Z,0.55
2022-08-07T10:12:01.104Z,0.60
2022-08-07T10:13:29.691Z,0.50
2022-08-07T10:16:02.828Z,0.70
2022-08-07T10:18:01.277Z,1.20
2022-08-07T10:19:30.326Z,0.65
2022-08-07T10:20:54.866Z,0.65
2022-08-07T10:22:24.921Z,0.60
2022-08-07T10:25:13.982Z,0.47
2022-08-07T10:26:51.796Z,0.60
2022-08-07T10:28:22.076Z,0.40
2022-08-07T10:29:56.662Z,0.52
2022-08-07T10:31:22.988Z,0.50
2022-08-07T10:32:51.589Z,0.47
2022-08-07T10:34:37.910Z,0.40
2022-08-07T10:35:56.028Z,0.40
2022-08-07T10:37:26.436Z,0.45
2022-08-07T10:38:59.919Z,0.43
2022-08-07T10:40:18.372Z,0.40
2022-08-07T10:41:46.034Z,0.32
2022-08-07T10:43:21.289Z,0.38
2022-08-07T10:44:57.399Z,0.60
2022-08-07T10:46:19.709Z,0.40
2022-08-07T10:47:51.540Z,0.60
2022-08-07T10:49:16.338Z,0.40
2022-08-07T10:50:49.902Z,0.40
2022-08-07T10:52:12.761Z,0.45
2022-08-07T10:53:41.944Z,0.50
2022-08-07T10:55:26.949Z,0.60
2022-08-07T10:56:44.132Z,0.45
2022-08-07T10:57:57.923Z,0.40
2022-08-07T10:59:06.449Z,0.38
2022-08-07T11:00:39.217Z,0.30
2022-08-07T11:02:04.870Z,0.52
2022-08-07T11:03:20.128Z,0.40
2022-08-07T11:06:07.106Z,0.20
2022-08-07T11:07:58.667Z,0.40
2022-08-07T11:09:04.213Z,0.35
2022-08-07T11:10:33.867Z,0.30
2022-08-07T11:11:45.408Z,0.50
2022-08-07T11:13:42.383Z,0.50
2022-08-07T11:15:00.191Z,0.28
2022-08-07T11:16:12.287Z,0.15
2022-08-07T11:17:23.194Z,0.35
2022-08-07T11:18:52.193Z,0.30
2022-08-07T11:20:38.327Z,0.30
2022-08-07T11:22:18.808Z,0.30
2022-08-07T11:23:45.418Z,0.40
2022-08-07T11:25:23.845Z,0.38
2022-08-07T11:26:38.635Z,0.20
2022-08-07T11:28:01.450Z,0.40
2022-08-07T11:29:13.137Z,0.65
2022-08-07T11:30:46.013Z,0.40
2022-08-07T11:32:25.533Z,0.30
2022-08-07T11:33:53.628Z,0.40
2022-08-07T11:35:12.421Z,0.40
2022-08-07T11:36:30.907Z,0.35
2022-08-07T11:37:38.478Z,0.20
2022-08-07T11:39:09.868Z,0.38
2022-08-07T11:40:34.000Z,0.30
2022-08-07T11:43:41.745Z,0.52
2022-08-07T11:45:30.011Z,0.20
2022-08-07T11:46:44.863Z,0.55
2022-08-07T11:47:58.865Z,0.40
2022-08-07T11:49:51.318Z,0.52
2022-08-07T11:51:41.903Z,0.40
2022-08-07T11:53:17.394Z,0.40
2022-08-07T11:54:39.217Z,0.50
2022-08-07T11:56:25.670Z,0.20
2022-08-07T11:57:57.996Z,0.52
2022-08-07T12:00:07.934Z,0.45
2022-08-07T12:01:02.193Z,0.30
2022-08-07T12:03:45.944Z,0.40
2022-08-07T12:05:28.284Z,0.52
2022-08-07T12:06:57.348Z,0.32
2022-08-07T12:08:26.175Z,0.40
2022-08-07T12:09:51.175Z,0.30
2022-08-07T12:11:21.428Z,0.30
2022-08-07T12:12:29.159Z,0.40
2022-08-07T12:13:54.485Z,0.30
2022-08-07T12:15:46.307Z,0.32
2022-08-07T12:17:02.022Z,0.30
2022-08-07T12:18:29.778Z,0.43
2022-08-07T12:20:04.750Z,0.40
2022-08-07T12:21:55.987Z,0.40
2022-08-07T12:24:04.921Z,0.35
2022-08-07T12:26:05.472Z,0.50
2022-08-07T12:27:15.891Z,0.38
2022-08-07T12:28:37.267Z,0.30
2022-08-07T12:30:04.240Z,0.32
2022-08-07T12:31:23.638Z,0.30
2022-08-07T12:32:30.616Z,0.30
2022-08-07T12:33:56.222Z,0.40
2022-08-07T12:34:57.315Z,0.50
2022-08-07T12:36:02.256Z,0.52
2022-08-07T12:37:08.635Z,0.50
2022-08-07T12:38:29.434Z,0.47
2022-08-07T12:39:50.776Z,0.50
2022-08-07T12:40:55.414Z,0.40
2022-08-07T12:42:02.550Z,0.35
2022-08-07T12:43:09.422Z,0.38
2022-08-07T12:44:17.307Z,0.57
2022-08-07T12:45:26.503Z,0.50
2022-08-07T12:46:36.808Z,0.40
2022-08-07T12:47:50.142Z,0.40
2022-08-07T12:49:10.198Z,0.20
2022-08-07T12:50:48.949Z,0.45
2022-08-07T12:52:13.785Z,0.30
2022-08-07T12:53:18.800Z,0.30
2022-08-07T12:54:38.621Z,0.73
2022-08-07T12:56:02.905Z,0.45
2022-08-07T12:57:09.760Z,0.50
2022-08-07T12:58:16.190Z,0.30
2022-08-07T12:59:23.341Z,0.30
2022-08-07T13:00:54.706Z,0.47
2022-08-07T13:02:25.110Z,0.40
2022-08-07T13:04:13.672Z,0.40
2022-08-07T13:06:03.086Z,0.40
2022-08-07T13:07:07.554Z,0.30
2022-08-07T13:08:23.517Z,0.30
2022-08-07T13:10:20.478Z,0.50
2022-08-07T13:11:31.403Z,0.50
2022-08-07T13:13:46.833Z,0.52
2022-08-07T13:15:15.764Z,0.20
2022-08-07T13:16:50.982Z,0.30
2022-08-07T13:18:04.010Z,0.60
2022-08-07T13:19:25.286Z,0.40
2022-08-07T13:20:52.001Z,0.50
2022-08-07T13:22:31.347Z,0.43
2022-08-07T13:24:01.469Z,0.43
2022-08-07T13:25:28.977Z,0.50
2022-08-07T13:26:49.472Z,0.30
2022-08-07T13:28:11.237Z,0.50
2022-08-07T13:29:47.821Z,0.60
2022-08-07T13:31:01.838Z,0.50
2022-08-07T13:32:32.651Z,0.40
2022-08-07T13:34:34.035Z,0.40
2022-08-07T13:36:00.212Z,0.40
2022-08-07T13:37:00.191Z,0.32
2022-08-07T13:38:20.167Z,0.60
2022-08-07T13:40:32.817Z,0.60
2022-08-07T13:41:41.626Z,0.52
2022-08-07T13:42:49.241Z,0.43
2022-08-07T13:43:56.188Z,0.45
2022-08-07T13:45:20.622Z,0.50
2022-08-07T13:46:28.843Z,0.40
2022-08-07T13:48:06.285Z,0.57
2022-08-07T13:49:02.042Z,0.60
2022-08-07T13:50:33.345Z,0.38
2022-08-07T13:52:04.471Z,0.30
2022-08-07T13:52:56.865Z,0.40
2022-08-07T13:54:05.102Z,0.30
2022-08-07T13:55:19.191Z,0.40
2022-08-07T13:56:40.721Z,0.32
2022-08-07T13:57:48.733Z,0.60
2022-08-07T13:59:05.805Z,0.50
2022-08-07T14:02:03.829Z,0.47
2022-08-07T14:03:01.461Z,0.47
2022-08-07T14:04:15.967Z,0.40
2022-08-07T14:05:25.065Z,0.40
2022-08-07T14:06:46.081Z,0.38
2022-08-07T14:08:00.123Z,0.50
2022-08-07T14:09:05.238Z,0.73
2022-08-07T14:10:21.674Z,0.20
2022-08-07T14:11:53.384Z,0.50
2022-08-07T14:12:57.891Z,0.55
2022-08-07T14:14:05.359Z,0.43
2022-08-07T14:15:10.897Z,0.20
2022-08-07T14:16:16.796Z,0.30
2022-08-07T14:18:12.856Z,0.38
2022-08-07T14:18:57.238Z,0.47
2022-08-07T14:20:40.223Z,0.52
2022-08-07T14:22:03.957Z,0.52
2022-08-07T14:23:31.333Z,0.50
2022-08-07T14:24:50.230Z,0.70
2022-08-07T14:26:02.401Z,0.40
2022-08-07T14:28:09.128Z,0.38
2022-08-07T14:28:55.826Z,0.50
2022-08-07T14:30:08.083Z,0.30
2022-08-07T14:31:14.769Z,0.63
2022-08-07T14:32:19.711Z,0.40
2022-08-07T14:33:24.284Z,0.40
2022-08-07T14:34:48.819Z,0.60
2022-08-07T14:35:59.019Z,0.52
2022-08-07T14:37:03.736Z,0.50
2022-08-07T14:38:07.025Z,0.40
2022-08-07T14:39:12.538Z,0.70
2022-08-07T14:40:35.608Z,0.90
2022-08-07T14:42:20.690Z,0.45
2022-08-07T14:43:58.901Z,0.70
2022-08-07T14:44:30.227Z,0.60
2022-08-07T14:45:54.582Z,0.60
2022-08-07T14:47:08.894Z,0.40
2022-08-07T14:48:20.531Z,0.50
2022-08-07T14:49:57.057Z,0.50
2022-08-07T14:50:54.830Z,0.40
2022-08-07T14:54:05.487Z,0.77
2022-08-07T14:56:14.712Z,0.70
2022-08-07T14:57:58.825Z,0.40
2022-08-07T15:00:31.184Z,0.60
2022-08-07T15:01:50.848Z,0.35
2022-08-07T15:02:56.681Z,0.50
2022-08-07T15:04:05.717Z,0.40
2022-08-07T15:05:20.586Z,0.40
2022-08-07T15:06:28.365Z,0.60
2022-08-07T15:07:47.715Z,0.40
2022-08-07T15:08:56.101Z,0.50
2022-08-07T15:10:02.024Z,0.38
2022-08-07T15:11:11.033Z,0.55
2022-08-07T15:13:57.854Z,0.40
2022-08-07T15:15:09.248Z,0.60
2022-08-07T15:16:37.793Z,0.32
2022-08-07T15:17:54.857Z,0.40
2022-08-07T15:19:00.742Z,0.50
2022-08-07T15:20:32.924Z,0.50
2022-08-07T15:21:59.463Z,0.63
2022-08-07T15:22:56.643Z,0.30
2022-08-07T15:25:13.347Z,0.57
2022-08-07T15:25:52.716Z,0.35
2022-08-07T15:27:11.282Z,0.40
2022-08-07T15:28:34.616Z,0.30
2022-08-07T15:30:09.146Z,0.32
2022-08-07T15:31:10.725Z,0.38
2022-08-07T15:32:15.239Z,0.40
2022-08-07T15:33:42.694Z,0.57
2022-08-07T15:34:50.156Z,0.50
2022-08-07T15:36:01.386Z,0.40
2022-08-07T15:37:08.311Z,0.80
2022-08-07T15:38:30.245Z,0.65
2022-08-07T15:39:56.518Z,0.47
2022-08-07T15:41:23.410Z,1.13
2022-08-07T15:42:45.783Z,0.60
2022-08-07T15:44:10.791Z,0.40
2022-08-07T15:45:22.737Z,0.45
2022-08-07T15:48:00.380Z,0.38
2022-08-07T15:49:13.231Z,0.50
2022-08-07T15:50:37.814Z,0.45
2022-08-07T15:53:09.232Z,0.52
2022-08-07T15:54:13.722Z,0.45
2022-08-07T15:55:20.535Z,0.40
2022-08-07T15:56:37.031Z,0.38
2022-08-07T15:57:49.088Z,0.47
2022-08-07T15:58:59.250Z,0.52
2022-08-07T16:00:06.479Z,0.40
2022-08-07T16:01:20.246Z,0.60
2022-08-07T16:02:39.034Z,0.70
2022-08-07T16:03:46.585Z,0.63
2022-08-07T16:04:59.076Z,0.30
2022-08-07T16:06:03.448Z,0.47
2022-08-07T16:08:31.005Z,0.47
2022-08-07T16:08:38.582Z,0.40
2022-08-07T16:11:00.373Z,0.40
2022-08-07T16:12:25.018Z,0.45
2022-08-07T16:14:20.632Z,0.35
2022-08-07T16:15:57.220Z,0.50
2022-08-07T16:16:56.758Z,0.40
2022-08-07T16:18:50.078Z,0.50
2022-08-07T16:19:59.003Z,0.57
2022-08-07T16:22:03.626Z,0.52
2022-08-07T16:23:53.235Z,0.60
2022-08-07T16:24:55.967Z,0.50
2022-08-07T16:26:05.245Z,0.60
2022-08-07T16:27:27.082Z,0.60
2022-08-07T16:30:08.642Z,0.40
2022-08-07T16:30:30.240Z,0.50
2022-08-07T16:31:57.850Z,0.30
2022-08-07T16:34:02.518Z,0.50
2022-08-07T16:34:34.153Z,0.47
2022-08-07T16:35:56.859Z,0.30
2022-08-07T16:38:03.723Z,0.40
2022-08-07T16:39:20.937Z,0.50
2022-08-07T16:41:01.701Z,0.60
2022-08-07T16:42:14.820Z,0.80
2022-08-07T16:44:05.730Z,0.57
2022-08-07T16:46:40.761Z,0.50
2022-08-07T16:47:49.707Z,0.45
2022-08-07T16:50:27.973Z,0.52
2022-08-07T16:50:44.727Z,0.32
2022-08-07T16:52:52.574Z,0.37
2022-08-07T16:54:08.877Z,0.40
2022-08-07T16:55:47.503Z,0.30
2022-08-07T16:57:15.833Z,0.60
2022-08-07T16:59:10.769Z,0.60
2022-08-07T17:00:30.056Z,0.57
2022-08-07T17:02:09.045Z,0.50
2022-08-07T17:03:17.135Z,0.70
2022-08-07T17:05:06.874Z,0.45
2022-08-07T17:06:44.323Z,0.70
2022-08-07T17:07:57.771Z,0.63
2022-08-07T17:09:09.094Z,0.40
2022-08-07T17:11:03.232Z,0.20
2022-08-07T17:12:36.828Z,0.40
2022-08-07T17:14:18.442Z,0.70
2022-08-07T17:15:04.855Z,0.70
2022-08-07T17:16:29.374Z,0.70
2022-08-07T17:17:47.625Z,0.52
2022-08-07T17:20:02.935Z,0.57
2022-08-07T17:20:57.647Z,0.50
2022-08-07T17:22:07.094Z,0.45
2022-08-07T17:23:19.269Z,0.70
2022-08-07T17:24:39.466Z,0.50
2022-08-07T17:25:54.274Z,0.50
2022-08-07T17:27:32.922Z,0.40
2022-08-07T17:28:49.965Z,0.73
2022-08-07T17:30:15.276Z,0.50
2022-08-07T17:32:03.320Z,0.70
2022-08-07T17:34:08.366Z,0.52
2022-08-07T17:35:33.093Z,0.55
2022-08-07T17:36:26.082Z,0.40
2022-08-07T17:38:06.642Z,0.47
2022-08-07T17:39:16.018Z,0.73
2022-08-07T17:40:50.606Z,0.50